createdAt,value
2022-12-11T00:01:11.695Z,91.17
2022-12-11T00:03:38.443Z,91.02
2022-12-11T00:06:07.243Z,91.16
2022-12-11T00:08:33.947Z,91.24
2022-12-11T00:11:00.659Z,91.12
2022-12-11T00:13:27.447Z,91.05
2022-12-11T00:15:54.071Z,91.10
2022-12-11T00:18:20.853Z,91.16
2022-12-11T00:20:47.457Z,91.07
2022-12-11T00:23:14.143Z,91.03
2022-12-11T00:25:44.272Z,91.00
2022-12-11T00:28:12.123Z,90.76
2022-12-11T00:30:40.847Z,90.77
2022-12-11T00:33:07.488Z,90.69
2022-12-11T00:35:34.160Z,90.73
2022-12-11T00:38:00.792Z,90.71
2022-12-11T00:40:27.460Z,90.50
2022-12-11T00:42:54.134Z,90.60
2022-12-11T00:45:20.787Z,90.44
2022-12-11T00:47:47.410Z,90.08
2022-12-11T00:50:14.063Z,90.29
2022-12-11T00:52:40.716Z,90.23
2022-12-11T00:55:07.760Z,90.55
2022-12-11T00:57:35.460Z,90.56
2022-12-11T01:00:02.135Z,90.46
2022-12-11T01:02:28.784Z,90.41
2022-12-11T01:04:56.170Z,90.40
2022-12-11T01:07:22.867Z,90.36
2022-12-11T01:10:08.122Z,90.54
2022-12-11T01:12:35.037Z,90.40
2022-12-11T01:15:01.713Z,90.44
2022-12-11T01:17:28.331Z,90.40
2022-12-11T01:19:55.136Z,90.30
2022-12-11T01:22:21.931Z,90.10
2022-12-11T01:24:48.715Z,89.86
2022-12-11T01:27:15.615Z,89.94
2022-12-11T01:29:42.266Z,90.02
2022-12-11T01:32:08.904Z,90.07
2022-12-11T01:34:35.733Z,90.11
2022-12-11T01:37:02.392Z,90.09
2022-12-11T01:39:29.028Z,89.92
2022-12-11T01:41:59.344Z,89.84
2022-12-11T01:44:25.972Z,89.70
2022-12-11T01:46:53.813Z,89.77
2022-12-11T01:49:21.739Z,89.90
2022-12-11T01:51:59.374Z,89.92
2022-12-11T01:54:26.266Z,90.03
2022-12-11T01:56:53.544Z,90.03
2022-12-11T01:59:22.595Z,89.96
2022-12-11T02:01:52.554Z,90.29
2022-12-11T02:04:19.327Z,90.44
2022-12-11T02:06:47.740Z,90.33
2022-12-11T02:09:16.265Z,90.61
2022-12-11T02:11:48.994Z,90.40
2022-12-11T02:14:28.181Z,90.41
2022-12-11T02:17:02.175Z,90.51
2022-12-11T02:20:06.794Z,90.24
2022-12-11T02:24:18.530Z,90.53
2022-12-11T02:26:56.512Z,90.73
2022-12-11T02:29:34.938Z,90.95
2022-12-11T02:32:04.821Z,90.97
2022-12-11T02:34:43.412Z,91.13
2022-12-11T02:37:13.444Z,91.89
2022-12-11T02:39:40.651Z,92.36
2022-12-11T02:42:07.279Z,92.87
2022-12-11T02:44:34.068Z,93.50
2022-12-11T02:47:01.008Z,93.62
2022-12-11T02:49:27.667Z,93.70
2022-12-11T02:51:54.805Z,93.90
2022-12-11T02:54:25.422Z,94.16
2022-12-11T02:57:00.636Z,94.56
2022-12-11T02:59:31.119Z,95.73
2022-12-11T03:01:58.307Z,96.90
2022-12-11T03:04:25.063Z,97.69
2022-12-11T03:06:54.733Z,98.47
2022-12-11T03:09:21.486Z,99.38
2022-12-11T03:11:48.187Z,99.99
2022-12-11T03:14:14.902Z,100.00
2022-12-11T03:17:00.136Z,100.00
2022-12-11T03:19:45.749Z,100.00
2022-12-11T03:22:16.292Z,100.00
2022-12-11T03:24:48.813Z,100.00
2022-12-11T03:27:37.083Z,100.00
2022-12-11T03:30:25.968Z,100.00
2022-12-11T03:32:58.181Z,100.00
2022-12-11T03:35:41.792Z,100.00
2022-12-11T03:38:14.660Z,100.00
2022-12-11T03:40:42.752Z,100.00
2022-12-11T03:43:10.253Z,100.00
2022-12-11T03:45:37.857Z,100.00
2022-12-11T03:48:05.597Z,100.00
2022-12-11T03:50:33.370Z,100.00
2022-12-11T03:53:01.079Z,100.00
2022-12-11T03:55:30.620Z,100.00
2022-12-11T03:57:58.345Z,100.00
2022-12-11T04:00:26.315Z,100.00
2022-12-11T04:03:13.925Z,100.00
2022-12-11T04:06:01.873Z,100.00
2022-12-11T04:08:29.591Z,100.00
2022-12-11T04:11:15.654Z,100.00
2022-12-11T04:13:43.279Z,100.00
2022-12-11T04:16:10.672Z,100.00
2022-12-11T04:18:56.529Z,100.00
2022-12-11T04:21:42.563Z,100.00
2022-12-11T04:24:15.946Z,100.00
2022-12-11T04:26:47.001Z,100.00
2022-12-11T04:29:15.547Z,100.00
2022-12-11T04:31:43.044Z,100.00
2022-12-11T04:34:10.917Z,100.00
2022-12-11T04:36:38.453Z,100.00
2022-12-11T04:39:06.167Z,100.00
2022-12-11T04:41:33.885Z,100.00
2022-12-11T04:44:01.289Z,100.00
2022-12-11T04:46:28.103Z,100.00
2022-12-11T04:48:57.707Z,100.00
2022-12-11T04:51:24.901Z,100.00
2022-12-11T04:53:51.568Z,100.00
2022-12-11T04:56:18.346Z,100.00
2022-12-11T04:58:45.141Z,100.00
2022-12-11T05:01:13.842Z,100.00
2022-12-11T05:03:40.723Z,100.00
2022-12-11T05:06:08.134Z,100.00
2022-12-11T05:08:35.573Z,100.00
2022-12-11T05:11:05.710Z,100.00
2022-12-11T05:13:32.508Z,100.00
2022-12-11T05:15:59.377Z,100.00
2022-12-11T05:18:26.124Z,100.00
2022-12-11T05:21:00.182Z,100.00
2022-12-11T05:23:26.987Z,100.00
2022-12-11T05:25:54.877Z,100.00
2022-12-11T05:28:22.019Z,100.00
2022-12-11T05:30:48.878Z,100.00
2022-12-11T05:33:15.498Z,100.00
2022-12-11T05:35:47.789Z,100.00
2022-12-11T05:38:14.724Z,100.00
2022-12-11T05:40:41.541Z,100.00
2022-12-11T05:43:08.648Z,100.00
2022-12-11T05:45:35.393Z,100.00
2022-12-11T05:48:02.099Z,100.00
2022-12-11T05:50:28.735Z,100.00
2022-12-11T05:52:55.483Z,100.00
2022-12-11T05:55:22.101Z,100.00
2022-12-11T05:57:48.930Z,100.00
2022-12-11T06:00:15.580Z,100.00
2022-12-11T06:02:42.339Z,100.00
2022-12-11T06:05:09.515Z,100.00
2022-12-11T06:07:36.325Z,100.00
2022-12-11T06:10:03.018Z,100.00
2022-12-11T06:12:29.949Z,100.00
2022-12-11T06:14:56.676Z,100.00
2022-12-11T06:17:23.306Z,100.00
2022-12-11T06:19:49.921Z,100.00
2022-12-11T06:22:16.595Z,100.00
2022-12-11T06:24:43.244Z,100.00
2022-12-11T06:27:10.243Z,100.00
2022-12-11T06:29:36.879Z,100.00
2022-12-11T06:32:03.671Z,100.00
2022-12-11T06:34:30.346Z,100.00
2022-12-11T06:36:56.974Z,100.00
2022-12-11T06:39:23.580Z,100.00
2022-12-11T06:41:50.218Z,100.00
2022-12-11T06:44:16.855Z,100.00
2022-12-11T06:46:43.479Z,100.00
2022-12-11T06:49:10.100Z,100.00
2022-12-11T06:51:36.900Z,100.00
2022-12-11T06:54:03.698Z,100.00
2022-12-11T06:56:30.512Z,100.00
2022-12-11T06:58:57.211Z,100.00
2022-12-11T07:01:25.797Z,100.00
2022-12-11T07:03:53.855Z,100.00
2022-12-11T07:06:20.579Z,100.00
2022-12-11T07:08:47.246Z,100.00
2022-12-11T07:11:15.312Z,100.00
2022-12-11T07:13:42.333Z,100.00
2022-12-11T07:16:11.036Z,100.00
2022-12-11T07:18:38.922Z,100.00
2022-12-11T07:21:06.525Z,100.00
2022-12-11T07:23:34.035Z,100.00
2022-12-11T07:26:07.411Z,100.00
2022-12-11T07:28:34.511Z,100.00
2022-12-11T07:31:08.183Z,100.00
2022-12-11T07:33:34.915Z,100.00
2022-12-11T07:36:05.875Z,100.00
2022-12-11T07:38:32.638Z,100.00
2022-12-11T07:41:03.520Z,100.00
2022-12-11T07:43:30.161Z,100.00
2022-12-11T07:46:03.941Z,100.00
2022-12-11T07:48:30.524Z,100.00
2022-12-11T07:51:27.981Z,100.00
2022-12-11T07:53:59.604Z,100.00
2022-12-11T07:56:26.783Z,100.00
2022-12-11T07:58:53.797Z,100.00
2022-12-11T08:01:26.073Z,100.00
2022-12-11T08:03:53.298Z,100.00
2022-12-11T08:06:21.459Z,100.00
2022-12-11T08:08:48.146Z,100.00
2022-12-11T08:11:14.894Z,100.00
2022-12-11T08:13:42.223Z,100.00
2022-12-11T08:16:10.747Z,100.00
2022-12-11T08:18:37.729Z,100.00
2022-12-11T08:21:06.303Z,100.00
2022-12-11T08:23:32.911Z,100.00
2022-12-11T08:25:59.687Z,100.00
2022-12-11T08:28:27.395Z,100.00
2022-12-11T08:30:54.167Z,100.00
2022-12-11T08:33:20.886Z,100.00
2022-12-11T08:35:47.655Z,100.00
2022-12-11T08:38:14.399Z,100.00
2022-12-11T08:40:41.096Z,100.00
2022-12-11T08:43:07.957Z,100.00
2022-12-11T08:45:34.606Z,100.00
2022-12-11T08:48:01.249Z,100.00
2022-12-11T08:50:27.923Z,100.00
2022-12-11T08:52:54.611Z,100.00
2022-12-11T08:55:22.051Z,100.00
2022-12-11T08:57:48.743Z,100.00
2022-12-11T09:00:15.932Z,100.00
2022-12-11T09:02:42.679Z,100.00
2022-12-11T09:05:10.177Z,100.00
2022-12-11T09:07:37.622Z,100.00
2022-12-11T09:10:05.791Z,100.00
2022-12-11T09:12:33.574Z,100.00
2022-12-11T09:15:00.261Z,100.00
2022-12-11T09:17:26.962Z,100.00
2022-12-11T09:19:53.609Z,100.00
2022-12-11T09:22:20.244Z,100.00
2022-12-11T09:24:47.164Z,100.00
2022-12-11T09:27:13.813Z,100.00
2022-12-11T09:29:40.610Z,100.00
2022-12-11T09:32:07.387Z,100.00
2022-12-11T09:34:34.088Z,100.00
2022-12-11T09:37:00.844Z,100.00
2022-12-11T09:39:27.515Z,100.00
2022-12-11T09:42:21.202Z,100.00
2022-12-11T09:44:54.865Z,100.00
2022-12-11T09:47:27.751Z,100.00
2022-12-11T09:49:59.152Z,100.00
2022-12-11T09:52:32.159Z,100.00
2022-12-11T09:55:13.663Z,100.00
2022-12-11T09:57:40.382Z,100.00
2022-12-11T10:00:26.065Z,100.00
2022-12-11T10:03:20.091Z,100.00
2022-12-11T10:06:08.683Z,100.00
2022-12-11T10:08:38.463Z,100.00
2022-12-11T10:11:42.214Z,100.00
2022-12-11T10:14:13.158Z,100.00
2022-12-11T10:16:48.489Z,100.00
2022-12-11T10:19:19.220Z,100.00
2022-12-11T10:21:45.860Z,100.00
2022-12-11T10:25:07.549Z,100.00
2022-12-11T10:27:21.847Z,100.00
2022-12-11T10:29:52.999Z,100.00
2022-12-11T10:32:24.721Z,100.00
2022-12-11T10:34:57.367Z,100.00
2022-12-11T10:37:24.363Z,100.00
2022-12-11T10:39:51.473Z,100.00
2022-12-11T10:42:22.423Z,100.00
2022-12-11T10:45:15.514Z,100.00
2022-12-11T10:47:42.126Z,100.00
2022-12-11T10:50:22.501Z,100.00
2022-12-11T10:52:49.169Z,100.00
2022-12-11T10:55:27.798Z,100.00
2022-12-11T10:58:02.635Z,100.00
2022-12-11T11:00:39.809Z,100.00
2022-12-11T11:03:23.889Z,100.00
2022-12-11T11:05:50.811Z,100.00
2022-12-11T11:08:21.591Z,100.00
2022-12-11T11:10:55.706Z,100.00
2022-12-11T11:13:23.549Z,100.00
2022-12-11T11:15:51.350Z,100.00
2022-12-11T11:18:27.797Z,100.00
2022-12-11T11:20:54.476Z,100.00
2022-12-11T11:23:23.992Z,100.00
2022-12-11T11:26:01.609Z,100.00
2022-12-11T11:28:40.643Z,100.00
2022-12-11T11:31:09.319Z,100.00
2022-12-11T11:33:37.019Z,100.00
2022-12-11T11:36:06.036Z,100.00
2022-12-11T11:38:44.941Z,100.00
2022-12-11T11:41:21.164Z,100.00
2022-12-11T11:43:59.230Z,100.00
2022-12-11T11:46:46.530Z,100.00
2022-12-11T11:49:15.500Z,100.00
2022-12-11T11:51:51.834Z,100.00
2022-12-11T11:54:36.100Z,100.00
2022-12-11T11:57:13.980Z,100.00
2022-12-11T11:59:42.967Z,100.00
2022-12-11T12:02:14.728Z,100.00
2022-12-11T12:04:41.372Z,100.00
2022-12-11T12:07:20.665Z,100.00
2022-12-11T12:10:12.476Z,100.00
2022-12-11T12:13:01.757Z,100.00
2022-12-11T12:15:38.883Z,100.00
2022-12-11T12:18:43.314Z,100.00
2022-12-11T12:21:19.695Z,100.00
2022-12-11T12:23:58.345Z,100.00
2022-12-11T12:26:29.924Z,100.00
2022-12-11T12:29:20.295Z,100.00
2022-12-11T12:31:53.759Z,100.00
2022-12-11T12:34:32.518Z,100.00
2022-12-11T12:37:49.383Z,100.00
2022-12-11T12:40:34.260Z,100.00
2022-12-11T12:43:11.298Z,100.00
2022-12-11T12:46:00.411Z,100.00
2022-12-11T12:48:27.306Z,100.00
2022-12-11T12:50:53.879Z,100.00
2022-12-11T12:53:23.185Z,100.00
2022-12-11T12:55:49.853Z,100.00
2022-12-11T12:58:31.739Z,100.00
2022-12-11T13:01:19.429Z,100.00
2022-12-11T13:04:06.353Z,100.00
2022-12-11T13:06:36.946Z,100.00
2022-12-11T13:09:17.837Z,100.00
2022-12-11T13:11:45.273Z,100.00
2022-12-11T13:14:11.936Z,100.00
2022-12-11T13:16:42.609Z,100.00
2022-12-11T13:19:27.779Z,100.00
2022-12-11T13:21:58.347Z,100.00
2022-12-11T13:24:26.944Z,100.00
2022-12-11T13:26:53.651Z,100.00
2022-12-11T13:29:35.824Z,100.00
2022-12-11T13:32:08.025Z,100.00
2022-12-11T13:34:39.616Z,100.00
2022-12-11T13:37:06.711Z,100.00
2022-12-11T13:39:35.075Z,100.00
2022-12-11T13:42:05.903Z,100.00
2022-12-11T13:44:39.435Z,100.00
2022-12-11T13:47:07.412Z,100.00
2022-12-11T13:49:38.731Z,100.00
2022-12-11T13:52:05.749Z,100.00
2022-12-11T13:54:34.078Z,100.00
2022-12-11T13:57:22.520Z,100.00
2022-12-11T13:59:53.469Z,100.00
2022-12-11T14:02:34.554Z,100.00
2022-12-11T14:05:03.632Z,100.00
2022-12-11T14:07:38.396Z,100.00
2022-12-11T14:10:19.457Z,100.00
2022-12-11T14:13:05.894Z,100.00
2022-12-11T14:15:33.801Z,100.00
2022-12-11T14:18:00.532Z,100.00
2022-12-11T14:20:29.027Z,100.00
2022-12-11T14:23:13.775Z,100.00
2022-12-11T14:25:40.464Z,100.00
2022-12-11T14:28:15.729Z,100.00
2022-12-11T14:30:46.792Z,100.00
2022-12-11T14:33:13.433Z,100.00
2022-12-11T14:35:40.583Z,100.00
2022-12-11T14:38:35.234Z,100.00
2022-12-11T14:42:38.143Z,100.00
2022-12-11T14:45:08.459Z,100.00
2022-12-11T14:47:39.211Z,100.00
2022-12-11T14:50:08.398Z,100.00
2022-12-11T14:52:43.504Z,100.00
2022-12-11T14:55:16.570Z,100.00
2022-12-11T14:57:44.652Z,100.00
2022-12-11T15:00:30.398Z,100.00
2022-12-11T15:03:07.906Z,100.00
2022-12-11T15:05:40.512Z,100.00
2022-12-11T15:08:10.763Z,100.00
2022-12-11T15:10:42.028Z,100.00
2022-12-11T15:13:09.184Z,100.00
2022-12-11T15:15:43.165Z,100.00
2022-12-11T15:18:34.158Z,100.00
2022-12-11T15:21:07.035Z,100.00
2022-12-11T15:23:35.072Z,100.00
2022-12-11T15:26:01.876Z,100.00
2022-12-11T15:28:33.550Z,100.00
2022-12-11T15:31:04.090Z,100.00
2022-12-11T15:33:34.322Z,100.00
2022-12-11T15:36:05.367Z,100.00
2022-12-11T15:38:40.737Z,100.00
2022-12-11T15:41:15.438Z,100.00
2022-12-11T15:43:42.100Z,100.00
2022-12-11T15:46:08.917Z,100.00
2022-12-11T15:48:35.613Z,100.00
2022-12-11T15:51:03.729Z,100.00
2022-12-11T15:53:30.329Z,100.00
2022-12-11T15:55:57.515Z,100.00
2022-12-11T15:58:24.566Z,100.00
2022-12-11T16:00:51.235Z,100.00
2022-12-11T16:03:18.918Z,100.00
2022-12-11T16:05:45.603Z,100.00
2022-12-11T16:08:17.126Z,100.00
2022-12-11T16:10:44.289Z,100.00
2022-12-11T16:13:11.291Z,100.00
2022-12-11T16:15:38.975Z,100.00
2022-12-11T16:18:07.678Z,100.00
2022-12-11T16:20:35.300Z,100.00
2022-12-11T16:23:01.952Z,100.00
2022-12-11T16:25:28.721Z,100.00
2022-12-11T16:27:56.633Z,100.00
2022-12-11T16:30:23.652Z,100.00
2022-12-11T16:32:51.067Z,100.00
2022-12-11T16:35:18.723Z,100.00
2022-12-11T16:37:45.756Z,100.00
2022-12-11T16:40:12.500Z,100.00
2022-12-11T16:42:39.302Z,100.00
2022-12-11T16:45:08.579Z,100.00
2022-12-11T16:47:35.302Z,100.00
2022-12-11T16:50:02.140Z,100.00
2022-12-11T16:52:28.800Z,100.00
2022-12-11T16:54:56.778Z,100.00
2022-12-11T16:57:23.441Z,100.00
2022-12-11T16:59:50.856Z,100.00
2022-12-11T17:02:17.802Z,100.00
2022-12-11T17:04:47.030Z,100.00
2022-12-11T17:07:17.755Z,100.00
2022-12-11T17:09:44.451Z,100.00
2022-12-11T17:12:11.080Z,100.00
2022-12-11T17:14:37.830Z,100.00
2022-12-11T17:17:04.714Z,100.00
2022-12-11T17:19:31.403Z,100.00
2022-12-11T17:21:58.983Z,100.00
2022-12-11T17:24:25.661Z,100.00
2022-12-11T17:26:52.697Z,100.00
2022-12-11T17:29:19.969Z,100.00
2022-12-11T17:31:46.809Z,100.00
2022-12-11T17:34:13.431Z,100.00
2022-12-11T17:36:40.110Z,100.00
2022-12-11T17:39:06.665Z,100.00
2022-12-11T17:41:33.346Z,100.00
2022-12-11T17:44:00.112Z,100.00
2022-12-11T17:46:26.763Z,100.00
2022-12-11T17:48:53.468Z,100.00
2022-12-11T17:51:26.617Z,100.00
2022-12-11T17:53:55.269Z,100.00
2022-12-11T17:56:22.160Z,100.00
2022-12-11T17:58:48.869Z,100.00
2022-12-11T18:01:15.530Z,100.00
2022-12-11T18:03:42.382Z,100.00
2022-12-11T18:06:11.525Z,100.00
2022-12-11T18:08:38.351Z,100.00
2022-12-11T18:11:31.822Z,100.00
2022-12-11T18:13:58.525Z,100.00
2022-12-11T18:16:27.819Z,100.00
2022-12-11T18:18:54.604Z,100.00
2022-12-11T18:21:23.220Z,100.00
2022-12-11T18:23:50.328Z,100.00
2022-12-11T18:26:18.337Z,100.00
2022-12-11T18:28:45.202Z,100.00
2022-12-11T18:31:12.158Z,100.00
2022-12-11T18:33:39.469Z,100.00
2022-12-11T18:36:06.598Z,100.00
2022-12-11T18:38:33.609Z,100.00
2022-12-11T18:41:05.666Z,100.00
2022-12-11T18:43:32.308Z,100.00
2022-12-11T18:45:59.002Z,100.00
2022-12-11T18:48:25.664Z,100.00
2022-12-11T18:50:52.359Z,100.00
2022-12-11T18:53:19.570Z,100.00
2022-12-11T18:55:47.546Z,100.00
2022-12-11T18:58:15.395Z,100.00
2022-12-11T19:00:42.373Z,100.00
2022-12-11T19:03:09.059Z,100.00
2022-12-11T19:05:40.286Z,100.00
2022-12-11T19:08:06.941Z,99.98
2022-12-11T19:10:33.585Z,99.39
2022-12-11T19:13:00.229Z,98.49
2022-12-11T19:15:27.753Z,97.69
2022-12-11T19:17:54.414Z,96.86
2022-12-11T19:23:07.905Z,94.22
2022-12-11T19:25:34.642Z,93.00
2022-12-11T19:28:01.399Z,92.33
2022-12-11T19:30:28.072Z,91.89
2022-12-11T19:32:54.970Z,91.74
2022-12-11T19:35:21.597Z,91.65
2022-12-11T19:37:48.239Z,91.30
2022-12-11T19:40:15.198Z,90.78
2022-12-11T19:42:42.428Z,90.57
2022-12-11T19:45:10.721Z,89.65
2022-12-11T19:47:37.688Z,88.97
2022-12-11T19:50:04.664Z,88.75
2022-12-11T19:52:31.333Z,88.31
2022-12-11T19:55:01.781Z,88.39
2022-12-11T19:57:28.458Z,88.67
2022-12-11T19:59:57.357Z,88.80
2022-12-11T20:02:24.304Z,88.67
2022-12-11T20:04:50.953Z,88.73
2022-12-11T20:07:17.844Z,88.80
2022-12-11T20:09:44.525Z,88.99
2022-12-11T20:12:11.166Z,88.78
2022-12-11T20:14:38.010Z,88.18
2022-12-11T20:17:14.208Z,87.71
2022-12-11T20:19:41.434Z,87.63
2022-12-11T20:22:09.075Z,87.23
2022-12-11T20:24:35.885Z,86.67
2022-12-11T20:27:02.579Z,85.98
2022-12-11T20:29:29.243Z,85.68
2022-12-11T20:31:55.899Z,85.41
2022-12-11T20:34:22.596Z,85.47
2022-12-11T20:36:49.415Z,85.18
2022-12-11T20:39:16.149Z,85.27
2022-12-11T20:41:42.890Z,85.84
2022-12-11T20:44:09.650Z,85.95
2022-12-11T20:46:36.393Z,86.04
2022-12-11T20:49:03.264Z,86.14
2022-12-11T20:51:30.356Z,86.27
2022-12-11T20:53:59.951Z,86.26
2022-12-11T20:56:30.159Z,86.01
2022-12-11T20:58:57.368Z,86.13
2022-12-11T21:01:25.023Z,86.39
2022-12-11T21:03:53.006Z,86.65
2022-12-11T21:06:26.699Z,86.74
2022-12-11T21:08:53.299Z,86.41
2022-12-11T21:11:20.120Z,86.45
2022-12-11T21:13:50.458Z,86.81
2022-12-11T21:16:17.840Z,86.55
2022-12-11T21:18:46.417Z,86.95
2022-12-11T21:21:13.139Z,86.52
2022-12-11T21:23:39.785Z,86.80
2022-12-11T21:26:06.506Z,86.65
2022-12-11T21:28:35.443Z,86.40
2022-12-11T21:31:04.278Z,86.20
2022-12-11T21:33:30.980Z,86.44
2022-12-11T21:35:57.799Z,86.56
2022-12-11T21:38:24.635Z,86.19
2022-12-11T21:40:51.754Z,85.83
2022-12-11T21:43:18.576Z,85.73
2022-12-11T21:46:01.017Z,85.27
2022-12-11T21:48:28.613Z,85.45
2022-12-11T21:50:55.282Z,85.22
2022-12-11T21:53:21.913Z,85.18
2022-12-11T21:55:48.579Z,85.21
2022-12-11T21:58:15.712Z,84.90
2022-12-11T22:00:42.423Z,85.03
2022-12-11T22:03:09.203Z,85.07
2022-12-11T22:05:35.890Z,84.98
2022-12-11T22:08:02.737Z,85.08
2022-12-11T22:10:29.493Z,85.17
2022-12-11T22:12:56.200Z,84.99
2022-12-11T22:15:22.882Z,84.68
2022-12-11T22:17:49.595Z,84.73
2022-12-11T22:20:16.275Z,84.57
2022-12-11T22:22:42.954Z,84.29
2022-12-11T22:25:10.086Z,84.35
2022-12-11T22:27:37.041Z,84.31
2022-12-11T22:30:04.341Z,84.35
2022-12-11T22:32:30.974Z,84.40
2022-12-11T22:34:57.917Z,84.25
2022-12-11T22:37:24.666Z,84.39
2022-12-11T22:39:51.425Z,84.10
2022-12-11T22:42:18.173Z,84.01
2022-12-11T22:44:44.783Z,84.24
2022-12-11T22:47:11.534Z,84.35
2022-12-11T22:49:38.183Z,83.99
2022-12-11T22:52:04.931Z,84.05
2022-12-11T22:54:31.576Z,84.04
2022-12-11T22:56:58.180Z,83.85
2022-12-11T22:59:24.864Z,83.76
2022-12-11T23:01:51.533Z,83.84
2022-12-11T23:04:18.171Z,84.02
2022-12-11T23:06:44.773Z,84.20
2022-12-11T23:09:11.853Z,84.23
2022-12-11T23:11:38.938Z,84.33
2022-12-11T23:14:06.683Z,84.04
2022-12-11T23:16:33.797Z,83.70
2022-12-11T23:19:00.733Z,83.21
2022-12-11T23:21:27.667Z,83.28
2022-12-11T23:23:54.804Z,83.03
2022-12-11T23:26:22.104Z,82.80
2022-12-11T23:28:49.207Z,82.89
2022-12-11T23:31:16.042Z,82.92
2022-12-11T23:33:42.786Z,82.89
2022-12-11T23:36:09.718Z,82.91
2022-12-11T23:38:36.515Z,82.50
2022-12-11T23:41:03.564Z,82.36
2022-12-11T23:43:30.196Z,82.53
2022-12-11T23:45:57.743Z,82.53
2022-12-11T23:48:24.444Z,82.06
2022-12-11T23:50:51.154Z,82.33
2022-12-11T23:53:17.774Z,82.20
2022-12-11T23:55:44.675Z,81.85
2022-12-11T23:58:11.820Z,81.79
